Time;durP1;ratioP1;P1;durP2;ratioP2;P2;SDS_P1;SDS_P2;PMS_P1;PMS_P2;Temp;Humidity;BMP_temperature;BMP_pressure;BME280_temperature;BME280_humidity;BME280_pressure;Samples;Min_cycle;Max_cycle;Signal;HPM_P1;HPM_P2
2022/04/23 00:01:55;;;;;;;30.45;27.35;;;10.40;99.90;;;;;;5114231;28;20027;-75
2022/04/23 00:04:21;;;;;;;29.50;26.40;;;10.40;99.90;;;;;;5112932;28;20076;-76
2022/04/23 00:06:46;;;;;;;33.45;29.73;;;10.50;99.90;;;;;;5113082;28;20062;-75
2022/04/23 00:09:12;;;;;;;34.20;28.65;;;10.50;99.90;;;;;;5113947;28;20194;-76
2022/04/23 00:11:37;;;;;;;35.65;31.70;;;10.50;99.90;;;;;;5113182;28;20038;-75
2022/04/23 00:14:07;;;;;;;35.65;31.75;;;10.50;99.90;;;;;;5113608;28;20472;-76
2022/04/23 00:16:33;;;;;;;38.72;33.00;;;10.50;99.90;;;;;;5114468;28;20020;-76
2022/04/23 00:18:59;;;;;;;38.25;33.15;;;10.50;99.90;;;;;;5113929;28;20452;-76
2022/04/23 00:21:25;;;;;;;44.10;35.55;;;10.40;99.90;;;;;;5114652;28;20024;-75
2022/04/23 00:23:51;;;;;;;38.40;34.25;;;10.50;99.90;;;;;;5114566;28;20077;-75
2022/04/23 00:26:17;;;;;;;36.67;32.72;;;10.50;99.90;;;;;;5113866;28;20028;-76
2022/04/23 00:28:43;;;;;;;39.53;35.13;;;10.50;99.90;;;;;;5113741;28;20506;-76
2022/04/23 00:31:09;;;;;;;44.03;35.80;;;10.50;99.90;;;;;;5112967;28;20015;-75
2022/04/23 00:33:38;;;;;;;38.30;34.03;;;10.50;99.90;;;;;;5112506;28;20491;-75
2022/04/23 00:36:10;;;;;;;43.45;35.85;;;10.40;99.90;;;;;;5113253;28;20071;-75
2022/04/23 00:38:39;;;;;;;41.72;36.88;;;10.40;99.90;;;;;;5113873;28;20027;-75
2022/04/23 00:41:05;;;;;;;40.72;36.42;;;10.40;99.90;;;;;;5111791;28;20023;-74
2022/04/23 00:43:35;;;;;;;46.30;38.80;;;10.40;99.90;;;;;;5113679;28;20096;-74
2022/04/23 00:46:03;;;;;;;45.95;38.05;;;10.40;99.90;;;;;;5113382;28;20172;-75
2022/04/23 00:48:29;;;;;;;44.50;38.25;;;10.40;99.90;;;;;;5113610;28;20015;-76
2022/04/23 00:50:59;;;;;;;45.75;39.22;;;10.40;99.90;;;;;;5113693;28;20038;-76
2022/04/23 00:53:27;;;;;;;49.17;40.10;;;10.40;99.90;;;;;;5113691;28;20071;-76
2022/04/23 00:55:53;;;;;;;49.20;42.55;;;10.40;99.90;;;;;;5113500;28;20115;-75
2022/04/23 00:58:19;;;;;;;50.00;42.80;;;10.40;99.90;;;;;;5112900;28;20111;-75
2022/04/23 01:00:45;;;;;;;51.17;41.40;;;10.40;99.90;;;;;;5112072;28;20036;-75
2022/04/23 01:03:12;;;;;;;46.85;40.45;;;10.40;99.90;;;;;;5112798;28;20047;-75
2022/04/23 01:05:44;;;;;;;49.35;40.83;;;10.40;99.90;;;;;;5113096;28;20491;-76
2022/04/23 01:08:10;;;;;;;52.92;41.88;;;10.40;99.90;;;;;;5112717;28;20037;-76
2022/04/23 01:10:36;;;;;;;51.38;43.60;;;10.40;99.90;;;;;;5113268;28;20098;-76
2022/04/23 01:13:02;;;;;;;50.05;41.50;;;10.40;99.90;;;;;;5111261;28;20020;-75
2022/04/23 01:15:28;;;;;;;48.42;42.75;;;10.40;99.90;;;;;;5112397;28;20116;-75
2022/04/23 01:17:54;;;;;;;54.38;44.03;;;10.40;99.90;;;;;;5112944;28;20464;-75
2022/04/23 01:20:20;;;;;;;51.42;43.75;;;10.40;99.90;;;;;;5111664;28;20429;-74
2022/04/23 01:22:46;;;;;;;55.25;45.45;;;10.40;99.90;;;;;;5113113;28;20061;-74
2022/04/23 01:25:13;;;;;;;50.28;43.05;;;10.40;99.90;;;;;;5112389;28;20115;-75
2022/04/23 01:27:45;;;;;;;54.75;45.35;;;10.40;99.90;;;;;;5112846;28;20016;-75
2022/04/23 01:30:11;;;;;;;60.60;46.92;;;10.40;99.90;;;;;;5112294;28;20023;-75
2022/04/23 01:32:37;;;;;;;56.67;45.70;;;10.40;99.90;;;;;;5112468;28;20031;-76
2022/04/23 01:35:04;;;;;;;55.72;46.80;;;10.40;99.90;;;;;;5110826;28;20042;-75
2022/04/23 01:37:30;;;;;;;59.50;49.58;;;10.30;99.90;;;;;;5112949;28;20126;-74
2022/04/23 01:39:56;;;;;;;57.92;47.47;;;10.40;99.90;;;;;;5112710;28;20024;-74
2022/04/23 01:42:22;;;;;;;60.95;46.72;;;10.30;99.90;;;;;;5112052;28;20514;-74
2022/04/23 01:44:49;;;;;;;58.08;46.80;;;10.40;99.90;;;;;;5112569;28;20456;-74
2022/04/23 01:47:15;;;;;;;55.97;47.70;;;10.40;99.90;;;;;;5111911;28;20452;-75
2022/04/23 01:49:42;;;;;;;60.03;46.60;;;10.30;99.90;;;;;;5112150;28;20046;-75
2022/04/23 01:52:09;;;;;;;60.22;48.80;;;10.30;99.90;;;;;;5112020;28;20094;-75
2022/04/23 01:54:35;;;;;;;60.90;47.33;;;10.40;99.90;;;;;;5112623;28;20032;-75
2022/04/23 01:57:01;;;;;;;64.40;50.25;;;10.30;99.90;;;;;;5112519;28;20023;-75
2022/04/23 01:59:27;;;;;;;63.67;51.17;;;10.30;99.90;;;;;;5110654;28;20388;-75
2022/04/23 02:01:53;;;;;;;65.20;51.92;;;10.30;99.90;;;;;;5112359;28;20027;-74
2022/04/23 02:04:19;;;;;;;66.32;51.17;;;10.30;99.90;;;;;;5112218;28;20036;-74
2022/04/23 02:06:46;;;;;;;65.32;48.47;;;10.30;99.90;;;;;;5112130;28;20068;-75
2022/04/23 02:09:12;;;;;;;67.15;51.78;;;10.30;99.90;;;;;;5112220;28;20035;-75
2022/04/23 02:11:37;;;;;;;65.30;49.35;;;10.30;99.90;;;;;;5112440;28;20022;-75
2022/04/23 02:14:03;;;;;;;67.65;52.22;;;10.30;99.90;;;;;;5110649;28;20048;-75
2022/04/23 02:16:30;;;;;;;67.80;52.60;;;10.30;99.90;;;;;;5111587;28;20065;-75
2022/04/23 02:18:58;;;;;;;64.35;51.40;;;10.30;99.90;;;;;;5112185;28;20030;-74
2022/04/23 02:21:25;;;;;;;67.68;52.78;;;10.30;99.90;;;;;;5112081;28;20039;-75
2022/04/23 02:23:54;;;;;;;68.88;52.30;;;10.30;99.90;;;;;;5112126;28;20385;-75
2022/04/23 02:26:20;;;;;;;69.97;52.50;;;10.30;99.90;;;;;;5111441;28;20413;-75
2022/04/23 02:28:50;;;;;;;71.15;53.90;;;10.20;99.90;;;;;;5112301;28;20023;-74
2022/04/23 02:31:16;;;;;;;73.40;53.88;;;10.20;99.90;;;;;;5114012;28;20111;-74
2022/04/23 02:33:42;;;;;;;70.78;53.47;;;10.20;99.90;;;;;;5116631;28;20080;-74
2022/04/23 02:36:08;;;;;;;66.15;51.25;;;10.20;99.90;;;;;;5115694;28;20118;-74
2022/04/23 02:38:34;;;;;;;74.15;53.53;;;10.20;99.90;;;;;;5116495;28;20099;-74
2022/04/23 02:41:00;;;;;;;69.43;53.05;;;10.20;99.90;;;;;;5115896;28;20498;-74
2022/04/23 02:43:25;;;;;;;67.70;53.88;;;10.20;99.90;;;;;;5115598;28;20049;-75
2022/04/23 02:45:52;;;;;;;73.07;54.75;;;10.20;99.90;;;;;;5116328;28;20407;-74
2022/04/23 02:48:18;;;;;;;75.28;55.50;;;10.20;99.90;;;;;;5115639;28;20028;-75
2022/04/23 02:50:44;;;;;;;66.00;52.58;;;10.20;99.90;;;;;;5116065;28;20023;-75
2022/04/23 02:53:10;;;;;;;68.57;52.90;;;10.20;99.90;;;;;;5115140;28;20457;-74
2022/04/23 02:55:37;;;;;;;68.30;52.67;;;10.20;99.90;;;;;;5115921;27;20024;-74
2022/04/23 02:58:07;;;;;;;72.25;54.83;;;10.20;99.90;;;;;;5115717;28;20028;-74
2022/04/23 03:00:33;;;;;;;69.18;54.10;;;10.20;99.90;;;;;;5115264;28;20047;-75
2022/04/23 03:02:59;;;;;;;69.65;54.22;;;10.20;99.90;;;;;;5114470;28;20059;-74
2022/04/23 03:05:25;;;;;;;70.63;53.92;;;10.20;99.90;;;;;;5115006;28;20058;-75
2022/04/23 03:07:53;;;;;;;69.95;54.40;;;10.20;99.90;;;;;;5115746;28;20088;-75
2022/04/23 03:10:19;;;;;;;66.00;50.45;;;10.20;99.90;;;;;;5115133;28;20164;-73
2022/04/23 03:12:46;;;;;;;65.05;51.25;;;10.20;99.90;;;;;;5115475;28;20031;-75
2022/04/23 03:15:16;;;;;;;59.85;47.75;;;10.20;99.90;;;;;;5114910;28;20132;-74
2022/04/23 03:17:43;;;;;;;60.30;48.25;;;10.20;99.90;;;;;;5115636;28;20028;-74
2022/04/23 03:20:12;;;;;;;65.53;47.95;;;10.20;99.90;;;;;;5115498;28;20031;-74
2022/04/23 03:22:38;;;;;;;59.80;45.95;;;10.20;99.90;;;;;;5115412;28;20031;-74
2022/04/23 03:25:09;;;;;;;59.10;43.92;;;10.20;99.90;;;;;;5115430;28;20134;-75
2022/04/23 03:27:36;;;;;;;55.15;44.45;;;10.20;99.90;;;;;;5115540;28;20487;-75
2022/04/23 03:30:03;;;;;;;58.35;44.35;;;10.10;99.90;;;;;;5115104;28;20027;-74
2022/04/23 03:32:29;;;;;;;55.80;42.92;;;10.10;99.90;;;;;;5114833;28;20036;-75
2022/04/23 03:34:54;;;;;;;59.60;44.13;;;10.10;99.90;;;;;;5113931;28;20036;-75
2022/04/23 03:37:21;;;;;;;55.90;42.97;;;10.10;99.90;;;;;;5114599;28;20080;-75
2022/04/23 03:42:31;;;;;;;54.40;42.28;;;10.00;99.90;;;;;;5112518;28;20295;-74
2022/04/23 03:44:57;;;;;;;51.15;42.03;;;10.00;99.90;;;;;;5115090;28;20091;-74
2022/04/23 03:47:23;;;;;;;50.72;41.50;;;10.00;99.90;;;;;;5114593;28;20020;-75
2022/04/23 03:49:49;;;;;;;50.97;40.47;;;10.00;99.90;;;;;;5113691;28;20019;-74
2022/04/23 03:52:14;;;;;;;54.45;41.90;;;10.00;99.90;;;;;;5113950;28;20434;-75
2022/04/23 03:54:40;;;;;;;50.63;40.08;;;10.00;99.90;;;;;;5114749;27;20064;-75
2022/04/23 03:57:06;;;;;;;50.15;39.47;;;10.00;99.90;;;;;;5114606;28;20027;-75
2022/04/23 03:59:32;;;;;;;44.03;38.58;;;10.00;99.90;;;;;;5113953;28;20348;-75
2022/04/23 04:02:02;;;;;;;49.50;40.72;;;10.00;99.90;;;;;;5113868;28;20062;-74
2022/04/23 04:04:28;;;;;;;49.42;41.05;;;10.00;99.90;;;;;;5113250;28;20456;-75
2022/04/23 04:06:54;;;;;;;51.65;40.33;;;10.00;99.90;;;;;;5114759;28;20076;-75
2022/04/23 04:09:38;;;;;;;51.72;39.88;;;10.00;99.90;;;;;;5114051;28;20030;-75
2022/04/23 04:12:06;;;;;;;47.85;38.67;;;10.00;99.90;;;;;;5114657;28;20027;-75
2022/04/23 04:14:34;;;;;;;47.25;37.67;;;10.00;99.90;;;;;;5113476;28;20043;-76
2022/04/23 04:17:01;;;;;;;46.35;37.70;;;10.00;99.90;;;;;;5114408;28;20481;-76
2022/04/23 04:19:28;;;;;;;47.72;38.88;;;9.90;99.90;;;;;;5110932;28;20032;-76
2022/04/23 04:21:55;;;;;;;45.58;38.25;;;9.90;99.90;;;;;;5113502;28;20109;-75
2022/04/23 04:24:21;;;;;;;42.63;37.35;;;9.90;99.90;;;;;;5113498;27;20062;-75
2022/04/23 04:26:47;;;;;;;47.72;37.53;;;9.90;99.90;;;;;;5114275;28;20063;-76
2022/04/23 04:29:16;;;;;;;48.85;37.25;;;9.90;99.90;;;;;;5113946;27;20023;-76
2022/04/23 04:31:48;;;;;;;45.42;36.08;;;9.90;99.90;;;;;;5114213;28;20020;-75
2022/04/23 04:34:21;;;;;;;44.25;36.13;;;9.90;99.90;;;;;;5113240;28;20511;-78
2022/04/23 04:36:48;;;;;;;41.92;34.83;;;9.90;99.90;;;;;;5113762;28;20112;-75
2022/04/23 04:39:15;;;;;;;45.58;36.58;;;9.90;99.90;;;;;;5113449;28;20042;-75
2022/04/23 04:41:41;;;;;;;40.80;35.35;;;9.80;99.90;;;;;;5113995;28;20024;-75
2022/04/23 04:44:08;;;;;;;42.53;34.50;;;9.90;99.90;;;;;;5113904;28;20024;-75
2022/04/23 04:46:35;;;;;;;36.40;32.40;;;9.90;99.90;;;;;;5113289;28;20456;-75
2022/04/23 04:49:02;;;;;;;38.10;31.75;;;9.80;99.90;;;;;;5113879;28;20081;-75
2022/04/23 04:51:28;;;;;;;38.40;32.20;;;9.90;99.90;;;;;;5111711;28;20383;-75
2022/04/23 04:53:54;;;;;;;37.58;32.00;;;9.80;99.90;;;;;;5112458;28;20016;-75
2022/04/23 04:56:20;;;;;;;37.35;31.88;;;9.80;99.90;;;;;;5111736;28;20024;-75
2022/04/23 04:58:47;;;;;;;35.53;31.45;;;9.80;99.90;;;;;;5113142;28;20433;-75
2022/04/23 05:01:13;;;;;;;37.25;31.45;;;9.80;99.90;;;;;;5113385;28;20128;-75
2022/04/23 05:03:40;;;;;;;36.35;31.05;;;9.90;99.90;;;;;;5112821;28;20019;-75
2022/04/23 05:06:09;;;;;;;37.50;31.52;;;9.90;99.90;;;;;;5113463;28;20031;-76
2022/04/23 05:08:35;;;;;;;37.83;30.90;;;9.90;99.90;;;;;;5112636;28;20049;-76
2022/04/23 05:11:01;;;;;;;35.63;29.63;;;9.90;99.90;;;;;;5113409;28;20027;-76
2022/04/23 05:13:27;;;;;;;34.35;28.63;;;9.90;99.90;;;;;;5112592;28;20055;-76
2022/04/23 05:15:52;;;;;;;31.35;27.55;;;9.90;99.90;;;;;;5112977;28;20085;-76
2022/04/23 05:18:18;;;;;;;33.63;28.52;;;9.80;99.90;;;;;;5112833;28;20038;-76
2022/04/23 05:20:44;;;;;;;31.90;27.42;;;9.90;99.90;;;;;;5111748;28;20038;-74
2022/04/23 05:23:09;;;;;;;31.65;26.83;;;9.90;99.90;;;;;;5113227;28;20372;-75
2022/04/23 05:25:35;;;;;;;30.73;25.90;;;9.90;99.90;;;;;;5112255;28;20094;-73
2022/04/23 05:28:01;;;;;;;33.03;26.55;;;9.90;99.90;;;;;;5112800;28;20019;-74
2022/04/23 05:30:27;;;;;;;31.27;27.08;;;9.90;99.90;;;;;;5112049;28;20031;-75
2022/04/23 05:32:53;;;;;;;31.92;27.10;;;9.80;99.90;;;;;;5113343;28;20032;-75
2022/04/23 05:35:19;;;;;;;29.90;25.63;;;9.80;99.90;;;;;;5112007;28;20041;-76
2022/04/23 05:37:45;;;;;;;28.50;25.10;;;9.80;99.90;;;;;;5094877;28;20376;-75
2022/04/23 05:40:11;;;;;;;30.52;25.42;;;9.80;99.90;;;;;;5112905;28;20034;-75
2022/04/23 05:42:36;;;;;;;30.60;26.02;;;9.80;99.90;;;;;;5112171;28;20035;-75
2022/04/23 05:45:02;;;;;;;28.15;24.15;;;9.80;99.90;;;;;;5112468;28;20404;-75
2022/04/23 05:47:28;;;;;;;29.58;24.83;;;9.80;99.90;;;;;;5111994;28;20027;-75
2022/04/23 05:49:54;;;;;;;28.40;25.38;;;9.80;99.90;;;;;;5112474;28;20027;-75
2022/04/23 05:52:19;;;;;;;30.30;26.13;;;9.80;99.90;;;;;;5111675;28;20106;-76
2022/04/23 05:54:45;;;;;;;29.88;25.02;;;9.80;99.90;;;;;;5112352;28;20031;-75
2022/04/23 05:57:11;;;;;;;28.92;24.58;;;9.80;99.90;;;;;;5112524;28;20031;-75
2022/04/23 05:59:37;;;;;;;29.88;25.00;;;9.80;99.90;;;;;;5111831;28;20027;-75
2022/04/23 06:02:03;;;;;;;29.85;24.90;;;9.80;99.90;;;;;;5112504;28;20170;-74
2022/04/23 06:04:29;;;;;;;31.40;24.02;;;9.80;99.90;;;;;;5112004;28;20031;-75
2022/04/23 06:06:58;;;;;;;29.67;24.25;;;9.80;99.90;;;;;;5112381;28;20016;-74
2022/04/23 06:09:24;;;;;;;28.17;24.83;;;9.80;99.90;;;;;;5111717;28;20032;-74
2022/04/23 06:11:49;;;;;;;29.73;24.45;;;9.80;99.90;;;;;;5112284;28;20035;-75
2022/04/23 06:14:15;;;;;;;28.95;24.50;;;9.80;99.90;;;;;;5111797;28;20411;-75
2022/04/23 06:16:41;;;;;;;29.80;24.38;;;9.80;99.90;;;;;;5110574;28;20051;-74
2022/04/23 06:19:06;;;;;;;29.00;25.77;;;9.80;99.90;;;;;;5111971;28;20123;-75
2022/04/23 06:21:32;;;;;;;29.55;24.08;;;9.80;99.90;;;;;;5110209;28;20035;-74
2022/04/23 06:23:58;;;;;;;27.83;24.52;;;9.90;99.90;;;;;;5112155;28;20107;-74
2022/04/23 06:26:24;;;;;;;27.20;24.08;;;9.90;99.90;;;;;;5110360;28;20098;-74
2022/04/23 06:28:50;;;;;;;27.58;24.58;;;9.90;99.90;;;;;;5112095;28;20062;-75
2022/04/23 06:31:16;;;;;;;34.85;24.73;;;9.90;99.90;;;;;;5110675;28;20436;-75
2022/04/23 06:33:42;;;;;;;29.05;25.27;;;9.90;99.90;;;;;;5111619;28;20028;-75
2022/04/23 06:36:10;;;;;;;29.23;24.63;;;9.90;99.90;;;;;;5112110;28;20054;-75
2022/04/23 06:38:36;;;;;;;29.98;24.70;;;9.90;99.90;;;;;;5110992;28;20092;-75
2022/04/23 06:41:02;;;;;;;30.33;24.73;;;9.90;99.90;;;;;;5112287;28;20020;-73
2022/04/23 06:43:28;;;;;;;28.80;24.70;;;9.90;99.90;;;;;;5111943;28;20072;-75
2022/04/23 06:45:53;;;;;;;28.27;23.80;;;10.00;99.90;;;;;;5112278;28;20032;-74
2022/04/23 06:48:19;;;;;;;28.88;25.00;;;10.00;99.90;;;;;;5111575;28;20023;-75
2022/04/23 06:50:44;;;;;;;29.70;24.42;;;10.00;99.90;;;;;;5111436;28;20035;-75
2022/04/23 06:53:10;;;;;;;27.67;23.85;;;10.00;99.90;;;;;;5110138;28;20024;-75
2022/04/23 06:55:36;;;;;;;29.85;25.92;;;10.00;99.90;;;;;;5110772;28;20076;-75
2022/04/23 06:58:02;;;;;;;28.27;25.15;;;10.00;99.90;;;;;;5111693;28;20169;-75
2022/04/23 07:03:12;;;;;;;29.55;25.75;;;10.10;99.90;;;;;;5111468;28;20030;-76
2022/04/23 07:05:37;;;;;;;30.27;25.52;;;10.10;99.90;;;;;;5109666;28;20032;-75
2022/04/23 07:08:03;;;;;;;31.02;24.90;;;10.10;99.90;;;;;;5111791;28;20035;-74
2022/04/23 07:10:31;;;;;;;29.58;25.48;;;10.10;99.90;;;;;;5110808;28;20472;-74
2022/04/23 07:12:57;;;;;;;30.45;26.33;;;10.10;99.90;;;;;;5111380;28;20024;-74
2022/04/23 07:15:24;;;;;;;33.35;26.63;;;10.10;99.90;;;;;;5110681;28;20058;-75
2022/04/23 07:17:50;;;;;;;33.65;29.10;;;10.10;99.90;;;;;;5112892;28;20034;-75
2022/04/23 07:20:17;;;;;;;32.05;27.00;;;10.20;99.90;;;;;;5115409;28;20107;-74
2022/04/23 07:25:33;;;;;;;33.78;27.95;;;10.20;99.90;;;;;;5114183;28;20042;-75
2022/04/23 07:27:59;;;;;;;34.58;27.20;;;10.20;99.90;;;;;;5113256;28;20027;-77
2022/04/23 07:30:28;;;;;;;30.85;26.83;;;10.20;99.90;;;;;;5112647;27;20035;-76
2022/04/23 07:32:55;;;;;;;30.83;27.35;;;10.20;99.90;;;;;;5115405;28;20023;-76
2022/04/23 07:38:24;;;;;;;32.85;28.48;;;10.30;99.90;;;;;;5114436;28;20035;-75
2022/04/23 07:40:51;;;;;;;31.38;27.50;;;10.30;99.90;;;;;;5111122;28;20106;-75
2022/04/23 07:43:18;;;;;;;32.78;28.13;;;10.40;99.90;;;;;;5114547;28;20317;-75
2022/04/23 07:45:45;;;;;;;33.53;28.23;;;10.40;99.90;;;;;;5111921;28;20074;-78
2022/04/23 07:48:12;;;;;;;33.72;28.83;;;10.40;99.90;;;;;;5114429;28;20061;-75
2022/04/23 07:50:40;;;;;;;33.55;29.60;;;10.50;99.90;;;;;;5113724;28;20076;-76
2022/04/23 07:53:11;;;;;;;33.90;29.42;;;10.50;99.90;;;;;;5114693;28;20405;-76
2022/04/23 07:55:38;;;;;;;34.85;30.33;;;10.60;99.90;;;;;;5120141;27;20480;-75
2022/04/23 07:58:05;;;;;;;36.03;28.88;;;10.60;99.90;;;;;;5113280;28;20463;-75
2022/04/23 08:00:31;;;;;;;32.28;27.35;;;10.60;99.90;;;;;;5113855;28;20417;-74
2022/04/23 08:02:58;;;;;;;31.27;27.88;;;10.70;99.90;;;;;;5113219;28;20019;-75
2022/04/23 08:05:24;;;;;;;36.22;29.35;;;10.80;99.90;;;;;;5114243;28;20031;-76
2022/04/23 08:07:49;;;;;;;35.10;29.52;;;10.80;99.90;;;;;;5114594;28;20026;-75
2022/04/23 08:10:15;;;;;;;36.00;29.52;;;10.80;99.90;;;;;;5114123;28;20016;-75
2022/04/23 08:12:41;;;;;;;34.05;29.90;;;10.90;99.90;;;;;;5113653;28;20110;-77
2022/04/23 08:15:07;;;;;;;34.08;28.63;;;10.90;99.90;;;;;;5112468;28;20429;-77
2022/04/23 08:17:33;;;;;;;35.65;29.23;;;11.00;99.90;;;;;;5113858;28;20026;-77
2022/04/23 08:19:59;;;;;;;32.58;28.83;;;11.00;99.90;;;;;;5114376;28;20023;-76
2022/04/23 08:22:26;;;;;;;31.70;28.23;;;11.10;99.90;;;;;;5113114;28;20031;-79
2022/04/23 08:24:52;;;;;;;34.83;28.90;;;11.20;99.90;;;;;;5112795;28;20491;-77
2022/04/23 08:27:17;;;;;;;34.25;28.92;;;11.30;99.90;;;;;;5113672;28;20066;-77
2022/04/23 08:32:27;;;;;;;34.63;29.17;;;11.50;99.90;;;;;;5113139;28;20031;-77
2022/04/23 08:34:53;;;;;;;30.95;26.85;;;11.60;99.90;;;;;;5113465;28;20036;-76
2022/04/23 08:37:19;;;;;;;33.83;27.98;;;11.70;99.00;;;;;;5113218;27;20471;-77
2022/04/23 08:39:47;;;;;;;35.33;28.20;;;11.80;99.00;;;;;;5113602;28;20027;-76
2022/04/23 08:42:16;;;;;;;31.40;28.10;;;11.90;98.30;;;;;;5113143;27;20429;-77
2022/04/23 08:44:42;;;;;;;33.38;28.60;;;12.00;97.40;;;;;;5113208;28;20032;-77
2022/04/23 08:47:11;;;;;;;32.22;28.42;;;12.00;96.60;;;;;;5110750;27;20108;-78
2022/04/23 08:49:40;;;;;;;30.92;27.58;;;12.10;96.20;;;;;;5114113;27;20111;-75
2022/04/23 08:52:28;;;;;;;34.08;28.67;;;12.10;96.10;;;;;;5113531;28;20019;-77
2022/04/23 08:54:54;;;;;;;33.00;28.40;;;12.10;96.00;;;;;;5093120;28;20495;-76
2022/04/23 08:57:20;;;;;;;32.47;28.20;;;12.10;95.50;;;;;;5111364;28;20027;-77
2022/04/23 08:59:51;;;;;;;32.67;27.70;;;12.20;95.90;;;;;;5113155;28;20460;-76
2022/04/23 09:02:35;;;;;;;31.90;28.02;;;12.20;95.50;;;;;;5113233;28;20024;-76
2022/04/23 09:05:02;;;;;;;32.55;27.70;;;12.20;95.60;;;;;;5112142;28;20028;-75
2022/04/23 09:07:29;;;;;;;30.00;26.77;;;12.30;95.50;;;;;;5110472;27;20038;-77
2022/04/23 09:09:56;;;;;;;30.88;27.50;;;12.30;94.80;;;;;;5113001;28;20030;-76
2022/04/23 09:12:24;;;;;;;31.25;27.92;;;12.40;95.30;;;;;;5112664;28;20031;-76
2022/04/23 09:14:50;;;;;;;31.70;27.67;;;12.50;94.20;;;;;;5112047;28;20044;-76
2022/04/23 09:25:40;;;;;;;31.02;27.67;;;13.10;93.70;;;;;;5092409;28;20088;-77
2022/04/23 09:28:32;;;;;;;34.80;27.10;;;13.20;92.60;;;;;;5101380;28;20498;-79
2022/04/23 09:30:59;;;;;;;32.40;28.15;;;13.30;92.10;;;;;;5110281;28;20171;-78
2022/04/23 09:33:41;;;;;;;30.75;26.48;;;13.40;91.40;;;;;;5112632;28;20324;-78
2022/04/23 09:36:07;;;;;;;30.75;26.90;;;13.40;90.60;;;;;;5110414;28;20031;-77
2022/04/23 09:38:32;;;;;;;31.67;26.83;;;13.40;90.30;;;;;;5111646;28;20022;-78
2022/04/23 09:41:20;;;;;;;30.27;25.80;;;13.50;90.10;;;;;;5112454;27;20031;-79
2022/04/23 09:43:49;;;;;;;30.13;26.67;;;13.70;90.60;;;;;;5108785;28;20047;-77
2022/04/23 09:46:15;;;;;;;29.13;25.83;;;13.80;90.10;;;;;;5110755;28;20023;-78
2022/04/23 09:48:45;;;;;;;30.95;27.65;;;13.80;86.80;;;;;;5111150;28;20030;-78
2022/04/23 09:51:25;;;;;;;29.45;26.27;;;13.80;86.20;;;;;;5111420;27;20479;-80
2022/04/23 09:53:53;;;;;;;30.92;26.25;;;13.90;87.20;;;;;;5112790;28;20665;-78
2022/04/23 09:56:24;;;;;;;30.85;26.10;;;13.90;85.40;;;;;;5126426;27;20057;-78
2022/04/23 09:58:53;;;;;;;31.65;28.00;;;13.90;86.00;;;;;;5119438;27;20080;-75
2022/04/23 10:01:20;;;;;;;33.10;27.75;;;14.00;85.90;;;;;;5111064;28;20039;-77
2022/04/23 10:03:50;;;;;;;29.63;26.42;;;14.10;85.50;;;;;;5110572;28;20476;-76
2022/04/23 10:06:18;;;;;;;29.70;26.50;;;14.20;84.90;;;;;;5111703;28;20076;-75
2022/04/23 10:08:47;;;;;;;29.77;26.13;;;14.20;85.60;;;;;;5111311;28;20032;-76
2022/04/23 10:11:41;;;;;;;31.90;27.35;;;14.40;85.60;;;;;;5111996;28;20027;-76
2022/04/23 10:14:26;;;;;;;29.85;26.20;;;14.40;84.60;;;;;;5108972;28;20050;-75
2022/04/23 10:16:54;;;;;;;30.13;26.77;;;14.50;84.60;;;;;;5111186;28;20027;-75
2022/04/23 10:19:22;;;;;;;29.05;25.95;;;14.60;83.70;;;;;;5111800;28;20100;-76
2022/04/23 10:22:14;;;;;;;29.83;26.55;;;14.70;83.80;;;;;;5110999;28;20495;-76
2022/04/23 10:24:55;;;;;;;27.58;24.67;;;14.80;81.20;;;;;;5106912;28;20073;-76
2022/04/23 10:27:25;;;;;;;28.92;25.67;;;14.80;80.90;;;;;;5111836;28;20071;-75
2022/04/23 10:29:58;;;;;;;30.73;26.70;;;15.00;81.60;;;;;;5118256;28;20062;-75
2022/04/23 10:32:24;;;;;;;31.23;26.05;;;15.00;81.30;;;;;;5111787;28;20055;-76
2022/04/23 10:34:50;;;;;;;32.70;27.00;;;14.90;79.40;;;;;;5108972;28;20031;-76
2022/04/23 10:37:28;;;;;;;29.40;26.30;;;14.80;78.60;;;;;;5111747;28;20023;-76
2022/04/23 10:39:53;;;;;;;30.85;27.55;;;14.80;79.70;;;;;;5109907;28;20027;-75
2022/04/23 10:42:24;;;;;;;29.67;26.58;;;14.70;80.90;;;;;;5111672;28;20517;-76
2022/04/23 10:44:51;;;;;;;30.70;27.10;;;14.80;80.90;;;;;;5110970;28;20034;-74
2022/04/23 10:47:32;;;;;;;28.95;25.85;;;14.80;81.00;;;;;;5111050;28;20028;-75
2022/04/23 10:50:20;;;;;;;29.65;26.55;;;14.80;80.70;;;;;;5111566;28;20433;-76
2022/04/23 10:52:47;;;;;;;31.00;27.65;;;14.90;81.30;;;;;;5114111;28;20107;-76
2022/04/23 10:55:14;;;;;;;28.40;25.45;;;14.90;81.50;;;;;;5113839;28;20385;-76
2022/04/23 10:57:46;;;;;;;33.45;28.02;;;14.90;79.80;;;;;;5114825;28;20020;-75
2022/04/23 11:00:17;;;;;;;29.38;26.27;;;14.80;79.40;;;;;;5115341;28;20110;-74
2022/04/23 11:02:56;;;;;;;29.50;25.77;;;14.70;79.00;;;;;;5115315;28;20112;-75
2022/04/23 11:14:47;;;;;;;28.98;25.33;;;14.60;80.40;;;;;;5114686;28;20059;-62
2022/04/23 11:17:36;;;;;;;28.40;25.33;;;14.50;79.70;;;;;;5114609;28;20061;-62
2022/04/23 11:20:02;;;;;;;28.58;25.58;;;14.60;80.80;;;;;;5115156;28;20030;-63
2022/04/23 11:22:28;;;;;;;29.00;25.45;;;14.70;81.90;;;;;;5114817;28;20016;-70
2022/04/23 11:24:55;;;;;;;29.33;26.30;;;14.80;82.50;;;;;;5114161;28;20245;-74
2022/04/23 11:27:38;;;;;;;29.50;26.38;;;14.90;80.20;;;;;;5114764;28;20034;-72
2022/04/23 11:30:07;;;;;;;30.05;25.13;;;15.00;81.10;;;;;;5114651;27;20027;-75
2022/04/23 11:32:34;;;;;;;29.90;26.60;;;15.00;80.00;;;;;;5114510;28;20046;-73
2022/04/23 11:35:05;;;;;;;28.70;25.65;;;15.00;78.70;;;;;;5114182;28;20020;-74
2022/04/23 11:37:38;;;;;;;28.77;25.67;;;15.00;79.30;;;;;;5114502;28;20035;-73
2022/04/23 11:40:13;;;;;;;28.15;25.13;;;15.10;80.10;;;;;;5114802;28;20027;-74
2022/04/23 11:42:47;;;;;;;27.80;24.80;;;15.10;78.80;;;;;;5112800;28;20080;-72
2022/04/23 11:45:18;;;;;;;29.48;26.38;;;15.20;79.50;;;;;;5113107;28;20436;-72
2022/04/23 11:47:44;;;;;;;27.02;24.15;;;15.30;80.40;;;;;;5112448;27;20027;-74
2022/04/23 11:50:28;;;;;;;29.20;26.00;;;15.40;79.80;;;;;;5114321;28;20027;-74
2022/04/23 11:53:03;;;;;;;27.52;24.73;;;15.40;78.10;;;;;;5113840;28;20051;-75
2022/04/23 11:55:32;;;;;;;26.75;23.70;;;15.40;76.90;;;;;;5114668;27;20027;-72
2022/04/23 11:58:05;;;;;;;29.40;25.58;;;15.40;76.40;;;;;;5112747;28;20384;-71
2022/04/23 12:00:34;;;;;;;26.60;23.88;;;15.40;76.40;;;;;;5114889;28;20046;-71
2022/04/23 12:03:01;;;;;;;26.38;23.77;;;15.40;77.70;;;;;;5112918;27;20030;-71
2022/04/23 12:05:32;;;;;;;27.95;23.92;;;15.40;77.00;;;;;;5113405;28;20118;-71
2022/04/23 12:07:59;;;;;;;25.90;23.25;;;15.40;77.40;;;;;;5112919;28;20051;-72
2022/04/23 12:10:29;;;;;;;24.48;21.95;;;15.40;77.50;;;;;;5113731;28;20053;-71
2022/04/23 12:12:56;;;;;;;31.50;26.35;;;15.50;77.90;;;;;;5110511;27;20035;-72
2022/04/23 12:15:22;;;;;;;25.17;22.48;;;15.60;77.80;;;;;;5114819;27;20100;-71
2022/04/23 12:17:48;;;;;;;22.70;20.35;;;15.60;75.80;;;;;;5117180;27;20098;-69
2022/04/23 12:20:19;;;;;;;23.33;20.83;;;15.70;76.50;;;;;;5116639;27;20039;-68
2022/04/23 12:23:02;;;;;;;22.17;19.92;;;15.70;75.20;;;;;;5119268;27;20440;-67
2022/04/23 12:25:30;;;;;;;25.65;22.73;;;15.80;73.10;;;;;;5121140;27;20055;-68
2022/04/23 12:40:43;;;;;;;27.25;23.63;;;15.80;73.10;;;;;;5113596;27;20453;-68
2022/04/23 12:42:04;;;;;;;31.35;28.25;;;15.40;76.20;;;;;;5113126;28;20038;-68
2022/04/23 12:44:32;;;;;;;32.03;28.63;;;15.20;78.10;;;;;;5113389;28;20038;-68
2022/04/23 12:47:04;;;;;;;33.60;28.27;;;15.10;78.60;;;;;;5113067;28;20447;-69
2022/04/23 12:49:48;;;;;;;;;;;15.00;79.50;;;;;;5113702;28;20028;-68
2022/04/23 12:52:23;;;;;;;27.23;24.40;;;15.00;79.50;;;;;;5113508;28;19939;-68
2022/04/23 12:55:17;;;;;;;25.67;22.40;;;15.00;80.40;;;;;;5112067;28;20028;-70
2022/04/23 12:57:47;;;;;;;27.65;23.30;;;15.00;79.30;;;;;;5112711;28;20026;-64
2022/04/23 13:00:19;;;;;;;26.48;22.30;;;15.00;79.50;;;;;;5113353;28;20131;-63
2022/04/23 13:02:49;;;;;;;25.58;22.85;;;15.10;79.80;;;;;;5112736;28;20024;-64
2022/04/23 13:05:14;;;;;;;26.17;23.48;;;15.10;81.10;;;;;;5113049;28;20039;-64
2022/04/23 13:10:25;;;;;;;25.85;23.15;;;15.20;82.80;;;;;;5113289;28;20072;-64
2022/04/23 13:12:52;;;;;;;32.42;23.55;;;15.20;80.30;;;;;;5112372;28;20027;-64
2022/04/23 13:15:17;;;;;;;26.55;23.27;;;15.20;80.90;;;;;;5110678;28;20135;-64
2022/04/23 13:17:46;;;;;;;26.35;23.50;;;15.20;80.40;;;;;;5112607;28;20119;-65
2022/04/23 13:20:13;;;;;;;25.42;22.55;;;15.20;80.60;;;;;;5111893;28;20019;-63